Japan Airlines Virtual Airport Information Service

Osaka Kansai International Airport

ICAO: RJBB Country: Japan
Latitude: 34.4273 Longitude: 135.244
Latest Arrival : CAL5238 (RCTP-RJBB) Latest Departure : NCA801 (RJBB-WSSS)


WX CaptureLIVE
Data provided by noaa.gov | Fetched at 07:08:12

METAR : RJBB 090630Z VRB01KT 9999 FEW015 SCT025 BKN035 25/23 Q1008 BECMG 23009KT

TAF : RJBB 090505Z 0906/1012 18005KT 9999 FEW015 SCT035 BKN045 BECMG 0908/0910 20018KT TEMPO 0918/0921 4000 SHRA BR


Runway Data for RJBB
Data provided by openaviationdata.com

Runway ID Mag Var Hdg Length Elevation Surface ILS Freq ILS Id ILS Slope
6 -7 57° 11483 ft 15 ft Asphalt 108.1 IKD 3
24 -7 237° 11483 ft 15 ft Asphalt 110.7 IKN 3

Osaka Kansai International Airport, Japan
Use only for reference purposes



Not for navigational purposes.